createdAt,value
2023-01-22T00:02:15.141Z,7.20
2023-01-22T00:04:45.464Z,6.63
2023-01-22T00:07:18.385Z,5.87
2023-01-22T00:09:48.609Z,6.67
2023-01-22T00:12:18.975Z,6.23
2023-01-22T00:14:49.830Z,6.57
2023-01-22T00:17:20.096Z,7.27
2023-01-22T00:19:50.261Z,7.43
2023-01-22T00:22:24.143Z,6.97
2023-01-22T00:24:54.490Z,7.10
2023-01-22T00:27:24.683Z,5.70
2023-01-22T00:29:54.950Z,7.30
2023-01-22T00:32:25.183Z,7.03
2023-01-22T00:34:55.374Z,7.30
2023-01-22T00:37:28.149Z,6.50
2023-01-22T00:39:58.942Z,6.37
2023-01-22T00:42:29.425Z,6.93
2023-01-22T00:44:59.794Z,5.90
2023-01-22T00:47:30.064Z,7.20
2023-01-22T00:50:00.784Z,6.27
2023-01-22T00:52:33.762Z,6.33
2023-01-22T00:55:03.972Z,6.00
2023-01-22T00:57:34.235Z,6.40
2023-01-22T01:00:04.743Z,6.07
2023-01-22T01:02:55.033Z,6.20
2023-01-22T01:05:25.252Z,6.50
2023-01-22T01:07:58.153Z,7.07
2023-01-22T01:10:28.340Z,7.53
2023-01-22T01:12:58.617Z,7.23
2023-01-22T01:15:28.824Z,5.60
2023-01-22T01:17:59.036Z,6.63
2023-01-22T01:20:29.339Z,6.13
2023-01-22T01:23:02.167Z,7.53
2023-01-22T01:25:32.357Z,6.30
2023-01-22T01:28:05.077Z,7.80
2023-01-22T01:30:35.304Z,6.27
2023-01-22T01:33:05.559Z,6.77
2023-01-22T01:35:35.780Z,6.73
2023-01-22T01:38:08.846Z,6.17
2023-01-22T01:40:39.055Z,6.37
2023-01-22T01:43:09.649Z,5.73
2023-01-22T01:45:40.334Z,6.33
2023-01-22T01:48:26.842Z,6.73
2023-01-22T01:51:00.747Z,7.03
2023-01-22T01:53:34.003Z,6.00
2023-01-22T01:56:08.176Z,6.33
2023-01-22T01:58:40.850Z,6.07
2023-01-22T02:01:14.811Z,6.03
2023-01-22T02:03:45.226Z,5.55
2023-01-22T02:06:16.663Z,5.70
2023-01-22T02:08:53.719Z,6.60
2023-01-22T02:11:24.923Z,6.60
2023-01-22T02:13:58.999Z,6.60
2023-01-22T02:16:30.747Z,6.77
2023-01-22T02:19:01.040Z,6.10
2023-01-22T02:21:40.098Z,6.00
2023-01-22T02:24:11.453Z,7.03
2023-01-22T02:26:43.415Z,6.03
2023-01-22T02:29:14.861Z,6.87
2023-01-22T02:31:45.431Z,7.27
2023-01-22T02:34:16.481Z,6.80
2023-01-22T02:36:52.124Z,7.07
2023-01-22T02:39:22.470Z,6.30
2023-01-22T02:41:53.740Z,5.97
2023-01-22T02:44:24.247Z,6.57
2023-01-22T02:46:54.462Z,6.33
2023-01-22T02:49:24.655Z,5.97
2023-01-22T02:51:57.538Z,7.23
2023-01-22T02:54:28.401Z,5.90
2023-01-22T02:56:59.495Z,7.07
2023-01-22T02:59:29.780Z,5.83
2023-01-22T03:02:00.170Z,6.23
2023-01-22T03:04:31.523Z,6.50
2023-01-22T03:07:04.324Z,5.70
2023-01-22T03:09:35.216Z,6.23
2023-01-22T03:12:06.069Z,6.63
2023-01-22T03:14:51.148Z,6.23
2023-01-22T03:17:34.397Z,5.10
2023-01-22T03:20:17.331Z,5.73
2023-01-22T03:22:50.346Z,6.00
2023-01-22T03:25:20.814Z,5.97
2023-01-22T03:28:04.028Z,5.97
2023-01-22T03:33:06.804Z,6.53
2023-01-22T03:35:37.008Z,6.97
2023-01-22T03:38:24.109Z,6.18
2023-01-22T03:40:55.573Z,6.18
2023-01-22T03:43:26.017Z,7.00
2023-01-22T03:45:56.334Z,7.03
2023-01-22T03:48:26.600Z,6.03
2023-01-22T03:50:56.863Z,7.50
2023-01-22T03:53:29.670Z,7.70
2023-01-22T03:56:00.252Z,7.73
2023-01-22T03:58:32.242Z,6.83
2023-01-22T04:01:04.166Z,6.30
2023-01-22T04:03:34.694Z,6.90
2023-01-22T04:06:05.608Z,6.17
2023-01-22T04:08:39.857Z,7.07
2023-01-22T04:11:10.254Z,6.40
2023-01-22T04:13:42.200Z,6.90
2023-01-22T04:16:14.342Z,5.93
2023-01-22T04:19:03.321Z,7.03
2023-01-22T04:21:51.948Z,6.20
2023-01-22T04:24:25.781Z,6.03
2023-01-22T04:26:56.457Z,5.57
2023-01-22T04:29:26.698Z,5.90
2023-01-22T04:31:57.226Z,6.50
2023-01-22T04:34:47.563Z,5.73
2023-01-22T04:37:24.088Z,5.27
2023-01-22T04:39:56.971Z,6.03
2023-01-22T04:42:27.325Z,7.10
2023-01-22T04:44:57.571Z,6.80
2023-01-22T04:47:28.059Z,7.40
2023-01-22T04:49:58.831Z,6.50
2023-01-22T04:52:29.027Z,6.57
2023-01-22T04:55:01.867Z,6.47
2023-01-22T04:57:42.592Z,6.43
2023-01-22T05:00:14.470Z,6.17
2023-01-22T05:02:44.718Z,6.53
2023-01-22T05:05:14.987Z,6.67
2023-01-22T05:07:45.153Z,6.20
2023-01-22T05:10:18.573Z,6.93
2023-01-22T05:12:49.193Z,6.68
2023-01-22T05:15:24.543Z,6.17
2023-01-22T05:17:58.376Z,6.70
2023-01-22T05:20:28.702Z,6.40
2023-01-22T05:22:59.046Z,6.70
2023-01-22T05:25:32.823Z,5.80
2023-01-22T05:28:03.113Z,5.57
2023-01-22T05:30:54.428Z,5.87
2023-01-22T05:33:35.521Z,6.67
2023-01-22T05:36:07.132Z,6.60
2023-01-22T05:38:37.935Z,6.37
2023-01-22T05:41:10.907Z,6.10
2023-01-22T05:43:42.565Z,5.28
2023-01-22T05:46:17.905Z,5.67
2023-01-22T05:49:08.897Z,6.10
2023-01-22T05:51:39.167Z,6.37
2023-01-22T05:54:09.911Z,6.53
2023-01-22T05:56:45.114Z,7.17
2023-01-22T05:59:15.781Z,5.60
2023-01-22T06:01:51.127Z,6.10
2023-01-22T06:04:22.090Z,6.07
2023-01-22T06:06:52.928Z,6.83
2023-01-22T06:09:25.335Z,6.50
2023-01-22T06:11:58.295Z,7.50
2023-01-22T06:14:28.511Z,5.80
2023-01-22T06:17:02.129Z,5.90
2023-01-22T06:19:41.301Z,5.67
2023-01-22T06:22:11.871Z,5.83
2023-01-22T06:24:51.488Z,7.20
2023-01-22T06:27:25.582Z,9.53
2023-01-22T06:30:04.068Z,7.60
2023-01-22T06:32:34.431Z,6.20
2023-01-22T06:35:04.613Z,6.77
2023-01-22T06:37:34.863Z,6.73
2023-01-22T06:40:05.135Z,6.67
2023-01-22T06:42:47.369Z,6.83
2023-01-22T06:45:17.927Z,6.47
2023-01-22T06:47:53.702Z,5.97
2023-01-22T06:50:23.934Z,5.80
2023-01-22T06:52:54.258Z,6.03
2023-01-22T06:55:24.482Z,4.97
2023-01-22T06:57:57.769Z,6.27
2023-01-22T07:00:27.953Z,6.10
2023-01-22T07:02:58.211Z,6.40
2023-01-22T07:05:28.479Z,6.80
2023-01-22T07:07:58.718Z,5.60
2023-01-22T07:10:28.991Z,5.63
2023-01-22T07:13:04.310Z,7.10
2023-01-22T07:15:34.505Z,6.33
2023-01-22T07:18:04.664Z,7.23
2023-01-22T07:20:34.810Z,6.87
2023-01-22T07:23:05.227Z,5.93
2023-01-22T07:25:35.389Z,6.43
2023-01-22T07:28:08.967Z,6.33
2023-01-22T07:30:40.540Z,6.18
2023-01-22T07:33:10.907Z,6.50
2023-01-22T07:35:41.095Z,7.70
2023-01-22T07:38:11.693Z,6.03
2023-01-22T07:40:41.862Z,8.27
2023-01-22T07:43:15.234Z,7.63
2023-01-22T07:45:45.401Z,6.50
2023-01-22T07:48:15.650Z,7.00
2023-01-22T07:50:45.872Z,5.43
2023-01-22T07:53:16.054Z,7.30
2023-01-22T07:55:46.391Z,6.43
2023-01-22T07:58:19.206Z,5.80
2023-01-22T08:00:49.586Z,6.47
2023-01-22T08:03:19.897Z,5.37
2023-01-22T08:05:50.114Z,6.07
2023-01-22T08:08:21.258Z,4.93
2023-01-22T08:10:51.396Z,5.27
2023-01-22T08:13:24.153Z,6.10
2023-01-22T08:15:55.092Z,6.63
2023-01-22T08:18:25.496Z,6.73
2023-01-22T08:20:55.793Z,6.07
2023-01-22T08:23:26.371Z,6.10
2023-01-22T08:25:56.970Z,6.37
2023-01-22T08:28:29.909Z,7.27
2023-01-22T08:31:01.009Z,8.07
2023-01-22T08:33:32.207Z,7.80
2023-01-22T08:36:02.370Z,7.57
2023-01-22T08:38:32.605Z,6.60
2023-01-22T08:41:02.887Z,6.87
2023-01-22T08:43:35.722Z,6.93
2023-01-22T08:46:05.916Z,7.43
2023-01-22T08:48:36.328Z,8.27
2023-01-22T08:51:06.535Z,6.77
2023-01-22T08:53:36.708Z,6.37
2023-01-22T08:56:07.375Z,6.00
2023-01-22T08:58:40.179Z,6.47
2023-01-22T09:01:10.387Z,5.07
2023-01-22T09:03:40.629Z,5.00
2023-01-22T09:06:10.840Z,5.93
2023-01-22T09:08:41.092Z,7.20
2023-01-22T09:11:11.320Z,7.40
2023-01-22T09:13:44.121Z,6.00
2023-01-22T09:16:14.318Z,5.90
2023-01-22T09:18:44.968Z,5.80
2023-01-22T09:21:15.161Z,4.67
2023-01-22T09:23:45.444Z,5.83
2023-01-22T09:26:15.702Z,6.83
2023-01-22T09:28:48.549Z,6.77
2023-01-22T09:31:19.020Z,5.43
2023-01-22T09:33:50.379Z,6.03
2023-01-22T09:36:20.758Z,5.10
2023-01-22T09:38:50.980Z,6.07
2023-01-22T09:41:25.066Z,7.03
2023-01-22T09:44:00.323Z,5.35
2023-01-22T09:46:33.552Z,5.57
2023-01-22T09:49:08.822Z,5.47
2023-01-22T09:51:39.217Z,6.27
2023-01-22T09:54:13.026Z,5.27
2023-01-22T09:56:45.435Z,6.13
2023-01-22T09:59:20.578Z,5.17
2023-01-22T10:01:55.961Z,6.57
2023-01-22T10:04:30.498Z,6.77
2023-01-22T10:07:03.051Z,5.67
2023-01-22T10:09:34.863Z,6.03
2023-01-22T10:12:14.474Z,5.00
2023-01-22T10:14:47.393Z,4.73
2023-01-22T10:17:22.395Z,5.83
2023-01-22T10:19:56.682Z,5.03
2023-01-22T10:22:29.057Z,7.18
2023-01-22T10:24:59.444Z,5.67
2023-01-22T10:27:36.655Z,5.50
2023-01-22T10:30:12.299Z,5.60
2023-01-22T10:32:42.525Z,4.97
2023-01-22T10:35:20.676Z,4.97
2023-01-22T10:37:53.536Z,4.13
2023-01-22T10:40:25.305Z,4.90
2023-01-22T10:43:12.716Z,4.33
2023-01-22T10:45:54.303Z,5.57
2023-01-22T10:48:25.719Z,12.80
2023-01-22T10:51:15.270Z,8.07
2023-01-22T10:53:50.908Z,5.70
2023-01-22T10:56:31.137Z,5.07
2023-01-22T10:59:01.725Z,4.87
2023-01-22T11:01:36.136Z,5.57
2023-01-22T11:04:16.042Z,6.00
2023-01-22T11:06:48.980Z,4.40
2023-01-22T11:09:22.811Z,6.07
2023-01-22T11:12:10.975Z,6.10
2023-01-22T11:14:42.319Z,5.03
2023-01-22T11:17:22.286Z,5.67
2023-01-22T11:20:00.731Z,5.40
2023-01-22T11:22:36.374Z,7.23
2023-01-22T11:25:08.203Z,5.97
2023-01-22T11:27:55.121Z,5.43
2023-01-22T11:30:50.367Z,5.93
2023-01-22T11:33:27.723Z,6.00
2023-01-22T11:36:00.878Z,5.07
2023-01-22T11:38:35.765Z,5.10
2023-01-22T11:41:19.164Z,5.93
2023-01-22T11:44:04.277Z,5.63
2023-01-22T11:46:52.154Z,4.03
2023-01-22T11:49:35.822Z,5.90
2023-01-22T11:52:12.130Z,4.87
2023-01-22T11:54:47.765Z,5.43
2023-01-22T11:57:23.140Z,5.57
2023-01-22T12:00:06.301Z,5.53
2023-01-22T12:03:05.619Z,6.23
2023-01-22T12:05:47.924Z,5.50
2023-01-22T12:08:35.946Z,4.70
2023-01-22T12:11:17.848Z,4.40
2023-01-22T12:14:20.838Z,4.67
2023-01-22T12:16:57.723Z,4.83
2023-01-22T12:20:03.488Z,4.30
2023-01-22T12:22:40.772Z,5.13
2023-01-22T12:25:20.689Z,5.63
2023-01-22T12:27:55.850Z,4.60
2023-01-22T12:30:27.995Z,5.00
2023-01-22T12:33:05.091Z,4.70
2023-01-22T12:35:35.488Z,4.10
2023-01-22T12:38:16.433Z,3.97
2023-01-22T12:41:16.011Z,4.27
2023-01-22T12:43:53.402Z,4.00
2023-01-22T12:46:31.439Z,3.70
2023-01-22T12:49:08.013Z,4.30
2023-01-22T12:51:41.725Z,4.50
2023-01-22T12:54:22.128Z,3.60
2023-01-22T12:56:52.755Z,3.40
2023-01-22T12:59:45.727Z,3.27
2023-01-22T13:02:25.170Z,3.27
2023-01-22T13:04:55.881Z,3.37
2023-01-22T13:07:35.469Z,4.07
2023-01-22T13:10:09.563Z,3.90
2023-01-22T13:12:45.459Z,4.03
2023-01-22T13:15:18.915Z,4.27
2023-01-22T13:17:55.834Z,2.67
2023-01-22T13:20:38.483Z,4.03
2023-01-22T13:23:09.404Z,4.20
2023-01-22T13:25:42.958Z,4.50
2023-01-22T13:28:13.769Z,4.63
2023-01-22T13:30:44.112Z,4.73
2023-01-22T13:33:15.883Z,4.20
2023-01-22T13:35:46.623Z,4.10
2023-01-22T13:38:23.843Z,3.53
2023-01-22T13:40:58.598Z,4.10
2023-01-22T13:43:29.372Z,4.53
2023-01-22T13:46:01.116Z,4.93
2023-01-22T13:48:31.349Z,4.03
2023-01-22T13:51:03.044Z,5.00
2023-01-22T13:53:35.192Z,4.83
2023-01-22T13:56:08.482Z,3.57
2023-01-22T13:58:48.396Z,3.80
2023-01-22T14:01:30.947Z,4.03
2023-01-22T14:04:02.301Z,3.60
2023-01-22T14:06:32.927Z,4.70
2023-01-22T14:09:03.115Z,4.63
2023-01-22T14:11:43.353Z,4.87
2023-01-22T14:14:20.320Z,4.93
2023-01-22T14:16:50.980Z,4.70
2023-01-22T14:19:21.366Z,4.70
2023-01-22T14:21:51.593Z,5.27
2023-01-22T14:24:21.792Z,4.47
2023-01-22T14:26:54.742Z,5.23
2023-01-22T14:29:24.949Z,4.37
2023-01-22T14:31:55.281Z,3.97
2023-01-22T14:34:25.562Z,4.43
2023-01-22T14:36:55.800Z,4.43
2023-01-22T14:39:26.006Z,4.93
2023-01-22T14:41:58.856Z,3.93
2023-01-22T14:44:29.127Z,4.30
2023-01-22T14:46:59.409Z,4.83
2023-01-22T14:49:29.656Z,4.10
2023-01-22T14:52:00.512Z,5.07
2023-01-22T14:54:30.826Z,4.73
2023-01-22T14:57:04.746Z,5.10
2023-01-22T14:59:34.929Z,5.20
2023-01-22T15:02:05.144Z,5.40
2023-01-22T15:04:35.402Z,5.10
2023-01-22T15:07:05.619Z,5.07
2023-01-22T15:09:35.828Z,4.40
2023-01-22T15:12:09.026Z,4.33
2023-01-22T15:14:39.190Z,4.43
2023-01-22T15:17:09.748Z,3.40
2023-01-22T15:19:41.645Z,4.63
2023-01-22T15:22:12.104Z,5.30
2023-01-22T15:24:43.793Z,4.07
2023-01-22T15:27:19.030Z,3.77
2023-01-22T15:29:49.739Z,4.30
2023-01-22T15:32:19.946Z,4.20
2023-01-22T15:34:50.120Z,4.93
2023-01-22T15:37:20.344Z,4.37
2023-01-22T15:39:50.701Z,4.27
2023-01-22T15:42:23.462Z,4.97
2023-01-22T15:44:53.655Z,4.93
2023-01-22T15:47:23.919Z,4.70
2023-01-22T15:49:54.127Z,4.10
2023-01-22T15:52:24.355Z,5.47
2023-01-22T15:54:56.218Z,5.00
2023-01-22T15:57:28.854Z,5.47
2023-01-22T15:59:59.100Z,6.00
2023-01-22T16:02:29.664Z,5.07
2023-01-22T16:04:59.919Z,5.50
2023-01-22T16:07:30.162Z,4.67
2023-01-22T16:10:00.336Z,4.80
2023-01-22T16:12:34.930Z,4.97
2023-01-22T16:15:05.283Z,6.50
2023-01-22T16:17:35.662Z,7.90
2023-01-22T16:20:06.016Z,10.57
2023-01-22T16:22:36.273Z,7.20
2023-01-22T16:25:06.763Z,7.83
2023-01-22T16:27:40.018Z,7.17
2023-01-22T16:30:11.097Z,7.13
2023-01-22T16:32:43.479Z,6.40
2023-01-22T16:35:14.072Z,7.10
2023-01-22T16:37:47.069Z,7.67
2023-01-22T16:40:18.584Z,5.80
2023-01-22T16:43:00.775Z,6.30
2023-01-22T16:45:30.996Z,6.30
2023-01-22T16:48:01.666Z,5.80
2023-01-22T16:50:31.953Z,6.80
2023-01-22T16:53:02.095Z,6.00
2023-01-22T16:55:32.436Z,6.47
2023-01-22T16:58:05.398Z,6.13
2023-01-22T17:00:35.721Z,5.27
2023-01-22T17:03:05.990Z,6.43
2023-01-22T17:05:36.294Z,5.37
2023-01-22T17:08:06.696Z,5.20
2023-01-22T17:10:38.926Z,6.03
2023-01-22T17:13:11.701Z,5.80
2023-01-22T17:15:42.316Z,6.73
2023-01-22T17:18:12.757Z,6.63
2023-01-22T17:20:53.809Z,6.33
2023-01-22T17:23:31.548Z,7.33
2023-01-22T17:26:01.697Z,6.40
2023-01-22T17:28:35.741Z,6.50
2023-01-22T17:31:07.832Z,6.47
2023-01-22T17:33:38.607Z,8.03
2023-01-22T17:36:09.484Z,6.77
2023-01-22T17:38:39.725Z,9.67
2023-01-22T17:41:10.847Z,8.73
2023-01-22T17:43:44.105Z,6.80
2023-01-22T17:46:16.221Z,8.13
2023-01-22T17:48:49.965Z,8.83
2023-01-22T17:51:23.537Z,7.03
2023-01-22T17:53:54.770Z,7.95
2023-01-22T17:56:26.314Z,7.20
2023-01-22T17:58:59.927Z,6.87
2023-01-22T18:01:31.367Z,10.10
2023-01-22T18:04:02.947Z,9.27
2023-01-22T18:06:33.307Z,7.23
2023-01-22T18:09:04.585Z,7.60
2023-01-22T18:11:35.164Z,8.37
2023-01-22T18:14:08.610Z,9.40
2023-01-22T18:16:40.917Z,13.60
2023-01-22T18:19:11.723Z,11.53
2023-01-22T18:21:42.280Z,15.33
2023-01-22T18:24:12.773Z,10.53
2023-01-22T18:26:42.956Z,9.93
2023-01-22T18:29:15.745Z,10.37
2023-01-22T18:31:46.035Z,10.03
2023-01-22T18:34:18.139Z,9.33
2023-01-22T18:36:48.305Z,9.57
2023-01-22T18:39:19.411Z,10.20
2023-01-22T18:41:49.756Z,9.67
2023-01-22T18:44:27.501Z,8.33
2023-01-22T18:47:00.152Z,9.77
2023-01-22T18:49:30.526Z,10.03
2023-01-22T18:52:01.481Z,8.07
2023-01-22T18:54:32.609Z,9.10
2023-01-22T18:57:02.921Z,8.33
2023-01-22T18:59:35.930Z,9.53
2023-01-22T19:02:07.727Z,7.80
2023-01-22T19:04:37.913Z,8.10
2023-01-22T19:07:08.082Z,9.23
2023-01-22T19:09:38.994Z,8.67
2023-01-22T19:12:13.604Z,7.40
2023-01-22T19:14:47.145Z,6.97
2023-01-22T19:17:17.513Z,9.33
2023-01-22T19:19:47.875Z,10.17
2023-01-22T19:22:18.117Z,8.63
2023-01-22T19:24:49.165Z,8.33
2023-01-22T19:27:19.494Z,7.60
2023-01-22T19:29:52.432Z,9.43
2023-01-22T19:32:27.719Z,8.50
2023-01-22T19:34:57.983Z,8.57
2023-01-22T19:37:29.448Z,7.43
2023-01-22T19:40:00.001Z,8.33
2023-01-22T19:42:30.212Z,9.13
2023-01-22T19:45:02.924Z,8.03
2023-01-22T19:47:33.240Z,8.40
2023-01-22T19:50:03.374Z,8.37
2023-01-22T19:52:33.814Z,8.67
2023-01-22T19:55:04.090Z,8.00
2023-01-22T19:57:34.452Z,8.17
2023-01-22T20:00:08.372Z,7.43
2023-01-22T20:02:40.536Z,7.73
2023-01-22T20:05:11.578Z,6.73
2023-01-22T20:07:42.395Z,7.80
2023-01-22T20:10:14.075Z,8.10
2023-01-22T20:12:45.465Z,7.03
2023-01-22T20:15:18.555Z,7.43
2023-01-22T20:17:50.194Z,6.50
2023-01-22T20:20:21.008Z,7.93
2023-01-22T20:22:51.767Z,6.87
2023-01-22T20:25:22.727Z,8.40
2023-01-22T20:27:53.029Z,7.80
2023-01-22T20:30:26.275Z,8.97
2023-01-22T20:32:56.705Z,10.23
2023-01-22T20:35:27.774Z,9.60
2023-01-22T20:37:58.062Z,8.33
2023-01-22T20:40:28.317Z,8.70
2023-01-22T20:42:58.476Z,9.30
2023-01-22T20:45:31.277Z,7.70
2023-01-22T20:48:01.573Z,7.17
2023-01-22T20:50:31.796Z,7.40
2023-01-22T20:53:02.009Z,8.17
2023-01-22T20:55:32.223Z,7.63
2023-01-22T20:58:02.486Z,6.83
2023-01-22T21:00:35.449Z,7.97
2023-01-22T21:03:05.616Z,9.73
2023-01-22T21:05:37.881Z,7.03
2023-01-22T21:08:08.361Z,8.00
2023-01-22T21:10:38.571Z,7.30
2023-01-22T21:13:08.772Z,7.83
2023-01-22T21:15:41.560Z,8.33
2023-01-22T21:18:11.812Z,8.87
2023-01-22T21:20:42.278Z,10.00
2023-01-22T21:23:12.510Z,13.20
2023-01-22T21:25:42.807Z,10.60
2023-01-22T21:28:13.473Z,8.73
2023-01-22T21:30:46.272Z,7.40
2023-01-22T21:33:18.927Z,7.77
2023-01-22T21:35:51.386Z,8.17
2023-01-22T21:38:21.603Z,8.70
2023-01-22T21:40:51.825Z,7.77
2023-01-22T21:43:34.480Z,8.40
2023-01-22T21:46:19.729Z,8.23
2023-01-22T21:48:50.034Z,8.57
2023-01-22T21:51:20.273Z,7.83
2023-01-22T21:53:50.513Z,8.97
2023-01-22T21:56:20.922Z,9.23
2023-01-22T21:58:51.487Z,7.70
2023-01-22T22:01:25.093Z,6.43
2023-01-22T22:03:55.479Z,7.63
2023-01-22T22:06:25.631Z,6.33
2023-01-22T22:08:55.874Z,6.70
2023-01-22T22:11:26.411Z,6.60
2023-01-22T22:13:57.103Z,6.80
2023-01-22T22:16:29.976Z,6.10
2023-01-22T22:19:00.314Z,7.47
2023-01-22T22:21:30.535Z,7.77
2023-01-22T22:24:01.010Z,7.40
2023-01-22T22:26:31.444Z,7.00
2023-01-22T22:29:01.653Z,6.20
2023-01-22T22:31:34.524Z,6.30
2023-01-22T22:34:04.881Z,7.23
2023-01-22T22:36:35.399Z,5.67
2023-01-22T22:39:06.495Z,6.80
2023-01-22T22:41:38.832Z,6.90
2023-01-22T22:44:10.394Z,6.43
2023-01-22T22:46:43.445Z,6.10
2023-01-22T22:49:15.034Z,6.00
2023-01-22T22:51:46.349Z,5.77
2023-01-22T22:54:17.997Z,7.17
2023-01-22T22:56:48.571Z,6.23
2023-01-22T22:59:19.824Z,6.30
2023-01-22T23:01:53.119Z,6.90
2023-01-22T23:04:23.343Z,6.83
2023-01-22T23:06:54.379Z,6.50
2023-01-22T23:09:24.780Z,7.00
2023-01-22T23:11:56.231Z,6.83
2023-01-22T23:14:26.704Z,7.57
2023-01-22T23:17:00.592Z,7.37
2023-01-22T23:19:30.910Z,7.88
2023-01-22T23:22:02.696Z,8.70
2023-01-22T23:24:33.153Z,7.03
2023-01-22T23:27:03.483Z,6.97
2023-01-22T23:29:33.735Z,5.87
2023-01-22T23:32:06.466Z,6.73
2023-01-22T23:34:37.627Z,7.83
2023-01-22T23:37:07.857Z,7.70
2023-01-22T23:39:38.060Z,7.10
2023-01-22T23:42:10.364Z,6.77
2023-01-22T23:44:40.569Z,6.67
2023-01-22T23:47:13.350Z,7.00
2023-01-22T23:49:43.557Z,7.57
2023-01-22T23:52:13.804Z,6.80
2023-01-22T23:54:43.969Z,6.33
2023-01-22T23:57:14.233Z,7.03
2023-01-22T23:59:44.524Z,6.77
